sensor_id;sensor_type;location;lat;lon;timestamp;P1;durP1;ratioP1;P2;durP2;ratioP2
22614;SDS011;11474;50.790;0.298;2022-11-21T00:00:31;19.63;;;3.63;;
22614;SDS011;11474;50.790;0.298;2022-11-21T00:02:58;20.75;;;3.95;;
22614;SDS011;11474;50.790;0.298;2022-11-21T00:05:25;21.15;;;3.97;;
22614;SDS011;11474;50.790;0.298;2022-11-21T00:07:51;17.57;;;3.40;;
22614;SDS011;11474;50.790;0.298;2022-11-21T00:10:17;19.65;;;3.75;;
22614;SDS011;11474;50.790;0.298;2022-11-21T00:12:43;16.50;;;3.55;;
22614;SDS011;11474;50.790;0.298;2022-11-21T00:15:09;20.63;;;4.15;;
22614;SDS011;11474;50.790;0.298;2022-11-21T00:17:35;23.20;;;3.72;;
22614;SDS011;11474;50.790;0.298;2022-11-21T00:20:01;23.50;;;4.47;;
22614;SDS011;11474;50.790;0.298;2022-11-21T00:22:27;18.52;;;3.88;;
22614;SDS011;11474;50.790;0.298;2022-11-21T00:24:53;21.27;;;4.00;;
22614;SDS011;11474;50.790;0.298;2022-11-21T00:27:19;17.60;;;3.67;;
22614;SDS011;11474;50.790;0.298;2022-11-21T00:29:45;26.00;;;4.07;;
22614;SDS011;11474;50.790;0.298;2022-11-21T00:32:11;18.10;;;4.10;;
22614;SDS011;11474;50.790;0.298;2022-11-21T00:34:37;20.60;;;3.95;;
22614;SDS011;11474;50.790;0.298;2022-11-21T00:37:03;19.92;;;3.90;;
22614;SDS011;11474;50.790;0.298;2022-11-21T00:39:29;17.60;;;3.60;;
22614;SDS011;11474;50.790;0.298;2022-11-21T00:41:55;16.00;;;3.15;;
22614;SDS011;11474;50.790;0.298;2022-11-21T00:44:21;16.58;;;3.80;;
22614;SDS011;11474;50.790;0.298;2022-11-21T00:46:47;22.02;;;3.92;;
22614;SDS011;11474;50.790;0.298;2022-11-21T00:49:13;15.13;;;3.47;;
22614;SDS011;11474;50.790;0.298;2022-11-21T00:51:39;21.17;;;3.78;;
22614;SDS011;11474;50.790;0.298;2022-11-21T00:54:07;18.17;;;3.95;;
22614;SDS011;11474;50.790;0.298;2022-11-21T00:56:33;19.15;;;3.53;;
22614;SDS011;11474;50.790;0.298;2022-11-21T00:58:59;16.25;;;3.25;;
22614;SDS011;11474;50.790;0.298;2022-11-21T01:01:25;16.33;;;3.80;;
22614;SDS011;11474;50.790;0.298;2022-11-21T01:03:51;15.55;;;4.00;;
22614;SDS011;11474;50.790;0.298;2022-11-21T01:06:17;19.47;;;3.83;;
22614;SDS011;11474;50.790;0.298;2022-11-21T01:08:43;18.85;;;4.35;;
22614;SDS011;11474;50.790;0.298;2022-11-21T01:11:13;16.45;;;3.80;;
22614;SDS011;11474;50.790;0.298;2022-11-21T01:13:39;16.80;;;4.10;;
22614;SDS011;11474;50.790;0.298;2022-11-21T01:16:06;18.60;;;3.83;;
22614;SDS011;11474;50.790;0.298;2022-11-21T01:18:33;16.08;;;4.00;;
22614;SDS011;11474;50.790;0.298;2022-11-21T01:21:00;14.55;;;3.40;;
22614;SDS011;11474;50.790;0.298;2022-11-21T01:23:26;16.73;;;3.72;;
22614;SDS011;11474;50.790;0.298;2022-11-21T01:25:52;12.80;;;3.00;;
22614;SDS011;11474;50.790;0.298;2022-11-21T01:28:18;15.80;;;3.30;;
22614;SDS011;11474;50.790;0.298;2022-11-21T01:30:44;19.33;;;3.63;;
22614;SDS011;11474;50.790;0.298;2022-11-21T01:33:10;19.65;;;3.80;;
22614;SDS011;11474;50.790;0.298;2022-11-21T01:35:36;15.63;;;3.65;;
22614;SDS011;11474;50.790;0.298;2022-11-21T01:38:02;17.90;;;3.40;;
22614;SDS011;11474;50.790;0.298;2022-11-21T01:40:28;19.10;;;3.45;;
22614;SDS011;11474;50.790;0.298;2022-11-21T01:43:00;14.52;;;3.30;;
22614;SDS011;11474;50.790;0.298;2022-11-21T01:48:12;17.10;;;3.63;;
22614;SDS011;11474;50.790;0.298;2022-11-21T01:50:38;15.25;;;3.60;;
22614;SDS011;11474;50.790;0.298;2022-11-21T01:53:04;18.20;;;3.55;;
22614;SDS011;11474;50.790;0.298;2022-11-21T01:55:30;18.63;;;3.78;;
22614;SDS011;11474;50.790;0.298;2022-11-21T01:57:56;19.23;;;3.95;;
22614;SDS011;11474;50.790;0.298;2022-11-21T02:00:23;20.50;;;3.95;;
22614;SDS011;11474;50.790;0.298;2022-11-21T02:02:50;13.82;;;3.30;;
22614;SDS011;11474;50.790;0.298;2022-11-21T02:05:19;15.68;;;3.00;;
22614;SDS011;11474;50.790;0.298;2022-11-21T02:07:47;12.18;;;3.50;;
22614;SDS011;11474;50.790;0.298;2022-11-21T02:10:14;19.05;;;4.00;;
22614;SDS011;11474;50.790;0.298;2022-11-21T02:12:53;14.05;;;3.33;;
22614;SDS011;11474;50.790;0.298;2022-11-21T02:15:20;13.70;;;3.40;;
22614;SDS011;11474;50.790;0.298;2022-11-21T02:17:47;13.27;;;3.30;;
22614;SDS011;11474;50.790;0.298;2022-11-21T02:20:14;19.15;;;4.35;;
22614;SDS011;11474;50.790;0.298;2022-11-21T02:25:13;15.38;;;3.30;;
22614;SDS011;11474;50.790;0.298;2022-11-21T02:27:40;17.52;;;3.40;;
22614;SDS011;11474;50.790;0.298;2022-11-21T02:30:07;17.88;;;4.07;;
22614;SDS011;11474;50.790;0.298;2022-11-21T02:32:38;17.75;;;4.28;;
22614;SDS011;11474;50.790;0.298;2022-11-21T02:35:05;21.27;;;4.40;;
22614;SDS011;11474;50.790;0.298;2022-11-21T02:37:31;19.55;;;3.72;;
22614;SDS011;11474;50.790;0.298;2022-11-21T02:39:59;19.05;;;4.30;;
22614;SDS011;11474;50.790;0.298;2022-11-21T02:44:56;16.77;;;4.03;;
22614;SDS011;11474;50.790;0.298;2022-11-21T02:47:25;19.45;;;4.07;;
22614;SDS011;11474;50.790;0.298;2022-11-21T02:49:55;15.93;;;3.72;;
22614;SDS011;11474;50.790;0.298;2022-11-21T02:52:22;16.42;;;4.03;;
22614;SDS011;11474;50.790;0.298;2022-11-21T02:54:48;18.30;;;3.92;;
22614;SDS011;11474;50.790;0.298;2022-11-21T02:57:14;17.52;;;4.00;;
22614;SDS011;11474;50.790;0.298;2022-11-21T02:59:40;19.98;;;4.25;;
22614;SDS011;11474;50.790;0.298;2022-11-21T03:02:06;22.77;;;5.10;;
22614;SDS011;11474;50.790;0.298;2022-11-21T03:04:32;17.30;;;4.22;;
22614;SDS011;11474;50.790;0.298;2022-11-21T03:06:58;17.52;;;3.70;;
22614;SDS011;11474;50.790;0.298;2022-11-21T03:09:24;18.35;;;4.03;;
22614;SDS011;11474;50.790;0.298;2022-11-21T03:11:50;19.65;;;3.70;;
22614;SDS011;11474;50.790;0.298;2022-11-21T03:14:16;22.30;;;4.00;;
22614;SDS011;11474;50.790;0.298;2022-11-21T03:16:42;13.57;;;3.20;;
22614;SDS011;11474;50.790;0.298;2022-11-21T03:19:08;13.63;;;3.60;;
22614;SDS011;11474;50.790;0.298;2022-11-21T03:21:34;17.50;;;3.30;;
22614;SDS011;11474;50.790;0.298;2022-11-21T03:24:00;13.50;;;3.30;;
22614;SDS011;11474;50.790;0.298;2022-11-21T03:26:26;13.55;;;3.75;;
22614;SDS011;11474;50.790;0.298;2022-11-21T03:28:52;14.55;;;3.60;;
22614;SDS011;11474;50.790;0.298;2022-11-21T03:31:18;14.07;;;3.97;;
22614;SDS011;11474;50.790;0.298;2022-11-21T03:33:45;11.60;;;3.42;;
22614;SDS011;11474;50.790;0.298;2022-11-21T03:36:11;14.75;;;3.63;;
22614;SDS011;11474;50.790;0.298;2022-11-21T03:38:37;16.23;;;4.37;;
22614;SDS011;11474;50.790;0.298;2022-11-21T03:41:04;11.67;;;3.33;;
22614;SDS011;11474;50.790;0.298;2022-11-21T03:43:51;16.30;;;4.00;;
22614;SDS011;11474;50.790;0.298;2022-11-21T03:46:17;14.68;;;3.40;;
22614;SDS011;11474;50.790;0.298;2022-11-21T03:48:43;12.80;;;3.58;;
22614;SDS011;11474;50.790;0.298;2022-11-21T03:51:09;18.25;;;4.50;;
22614;SDS011;11474;50.790;0.298;2022-11-21T03:53:36;17.30;;;4.18;;
22614;SDS011;11474;50.790;0.298;2022-11-21T03:56:02;18.55;;;3.72;;
22614;SDS011;11474;50.790;0.298;2022-11-21T03:58:28;16.15;;;3.90;;
22614;SDS011;11474;50.790;0.298;2022-11-21T04:00:54;18.10;;;3.50;;
22614;SDS011;11474;50.790;0.298;2022-11-21T04:03:20;12.63;;;3.22;;
22614;SDS011;11474;50.790;0.298;2022-11-21T04:05:46;13.85;;;3.65;;
22614;SDS011;11474;50.790;0.298;2022-11-21T04:08:12;11.30;;;3.20;;
22614;SDS011;11474;50.790;0.298;2022-11-21T04:10:38;12.88;;;3.40;;
22614;SDS011;11474;50.790;0.298;2022-11-21T04:13:04;9.40;;;3.25;;
22614;SDS011;11474;50.790;0.298;2022-11-21T04:15:30;12.98;;;3.90;;
22614;SDS011;11474;50.790;0.298;2022-11-21T04:17:56;13.85;;;3.50;;
22614;SDS011;11474;50.790;0.298;2022-11-21T04:20:22;16.77;;;3.53;;
22614;SDS011;11474;50.790;0.298;2022-11-21T04:22:48;14.75;;;3.33;;
22614;SDS011;11474;50.790;0.298;2022-11-21T04:25:14;14.60;;;3.90;;
22614;SDS011;11474;50.790;0.298;2022-11-21T04:27:40;15.77;;;3.72;;
22614;SDS011;11474;50.790;0.298;2022-11-21T04:30:06;14.02;;;3.33;;
22614;SDS011;11474;50.790;0.298;2022-11-21T04:32:33;16.23;;;3.87;;
22614;SDS011;11474;50.790;0.298;2022-11-21T04:34:59;13.27;;;3.58;;
22614;SDS011;11474;50.790;0.298;2022-11-21T04:37:25;15.32;;;3.33;;
22614;SDS011;11474;50.790;0.298;2022-11-21T04:39:51;17.67;;;3.85;;
22614;SDS011;11474;50.790;0.298;2022-11-21T04:42:17;19.23;;;4.10;;
22614;SDS011;11474;50.790;0.298;2022-11-21T04:44:43;14.75;;;3.75;;
22614;SDS011;11474;50.790;0.298;2022-11-21T04:47:09;15.85;;;3.47;;
22614;SDS011;11474;50.790;0.298;2022-11-21T04:49:35;11.73;;;3.22;;
22614;SDS011;11474;50.790;0.298;2022-11-21T04:52:01;13.25;;;3.85;;
22614;SDS011;11474;50.790;0.298;2022-11-21T04:54:27;9.02;;;3.75;;
22614;SDS011;11474;50.790;0.298;2022-11-21T04:56:53;13.30;;;3.08;;
22614;SDS011;11474;50.790;0.298;2022-11-21T04:59:19;13.20;;;3.72;;
22614;SDS011;11474;50.790;0.298;2022-11-21T05:01:45;12.25;;;3.05;;
22614;SDS011;11474;50.790;0.298;2022-11-21T05:04:11;10.68;;;3.10;;
22614;SDS011;11474;50.790;0.298;2022-11-21T05:06:37;11.75;;;3.50;;
22614;SDS011;11474;50.790;0.298;2022-11-21T05:09:03;13.55;;;3.22;;
22614;SDS011;11474;50.790;0.298;2022-11-21T05:11:29;17.48;;;3.97;;
22614;SDS011;11474;50.790;0.298;2022-11-21T05:14:14;10.57;;;3.53;;
22614;SDS011;11474;50.790;0.298;2022-11-21T05:16:40;14.32;;;4.03;;
22614;SDS011;11474;50.790;0.298;2022-11-21T05:19:07;18.95;;;3.67;;
22614;SDS011;11474;50.790;0.298;2022-11-21T05:21:33;13.73;;;3.40;;
22614;SDS011;11474;50.790;0.298;2022-11-21T05:24:00;15.07;;;3.90;;
22614;SDS011;11474;50.790;0.298;2022-11-21T05:26:26;15.47;;;3.70;;
22614;SDS011;11474;50.790;0.298;2022-11-21T05:28:52;11.98;;;3.65;;
22614;SDS011;11474;50.790;0.298;2022-11-21T05:31:18;14.00;;;3.85;;
22614;SDS011;11474;50.790;0.298;2022-11-21T05:33:44;19.00;;;4.22;;
22614;SDS011;11474;50.790;0.298;2022-11-21T05:36:10;15.93;;;3.92;;
22614;SDS011;11474;50.790;0.298;2022-11-21T05:38:36;16.67;;;3.90;;
22614;SDS011;11474;50.790;0.298;2022-11-21T05:41:02;10.73;;;3.35;;
22614;SDS011;11474;50.790;0.298;2022-11-21T05:43:28;17.75;;;3.95;;
22614;SDS011;11474;50.790;0.298;2022-11-21T05:46:16;13.57;;;3.90;;
22614;SDS011;11474;50.790;0.298;2022-11-21T05:48:43;17.33;;;3.87;;
22614;SDS011;11474;50.790;0.298;2022-11-21T05:51:09;17.05;;;3.75;;
22614;SDS011;11474;50.790;0.298;2022-11-21T05:53:35;14.25;;;3.40;;
22614;SDS011;11474;50.790;0.298;2022-11-21T05:56:05;14.65;;;3.47;;
22614;SDS011;11474;50.790;0.298;2022-11-21T05:58:32;16.08;;;3.70;;
22614;SDS011;11474;50.790;0.298;2022-11-21T06:00:58;19.60;;;3.63;;
22614;SDS011;11474;50.790;0.298;2022-11-21T06:03:25;18.83;;;3.80;;
22614;SDS011;11474;50.790;0.298;2022-11-21T06:08:46;15.87;;;3.63;;
22614;SDS011;11474;50.790;0.298;2022-11-21T06:11:13;15.07;;;3.97;;
22614;SDS011;11474;50.790;0.298;2022-11-21T06:13:39;20.83;;;4.10;;
22614;SDS011;11474;50.790;0.298;2022-11-21T06:16:07;20.55;;;4.30;;
22614;SDS011;11474;50.790;0.298;2022-11-21T06:18:34;15.18;;;3.75;;
22614;SDS011;11474;50.790;0.298;2022-11-21T06:21:01;16.58;;;4.00;;
22614;SDS011;11474;50.790;0.298;2022-11-21T06:23:28;21.10;;;4.80;;
22614;SDS011;11474;50.790;0.298;2022-11-21T06:25:57;23.00;;;3.92;;
22614;SDS011;11474;50.790;0.298;2022-11-21T06:28:24;21.58;;;4.53;;
22614;SDS011;11474;50.790;0.298;2022-11-21T06:30:50;25.00;;;4.40;;
22614;SDS011;11474;50.790;0.298;2022-11-21T06:33:16;22.88;;;4.30;;
22614;SDS011;11474;50.790;0.298;2022-11-21T06:35:42;17.13;;;4.32;;
22614;SDS011;11474;50.790;0.298;2022-11-21T06:38:08;20.70;;;4.35;;
22614;SDS011;11474;50.790;0.298;2022-11-21T06:40:37;18.00;;;3.80;;
22614;SDS011;11474;50.790;0.298;2022-11-21T06:43:03;25.02;;;4.43;;
22614;SDS011;11474;50.790;0.298;2022-11-21T06:45:29;19.42;;;4.45;;
22614;SDS011;11474;50.790;0.298;2022-11-21T06:47:55;16.75;;;3.78;;
22614;SDS011;11474;50.790;0.298;2022-11-21T06:50:21;18.40;;;4.50;;
22614;SDS011;11474;50.790;0.298;2022-11-21T06:52:48;13.45;;;3.65;;
22614;SDS011;11474;50.790;0.298;2022-11-21T06:55:14;22.38;;;4.68;;
22614;SDS011;11474;50.790;0.298;2022-11-21T06:57:40;20.20;;;4.03;;
22614;SDS011;11474;50.790;0.298;2022-11-21T07:00:07;20.52;;;3.97;;
22614;SDS011;11474;50.790;0.298;2022-11-21T07:02:33;18.60;;;4.13;;
22614;SDS011;11474;50.790;0.298;2022-11-21T07:04:59;14.18;;;3.45;;
22614;SDS011;11474;50.790;0.298;2022-11-21T07:07:25;19.70;;;4.18;;
22614;SDS011;11474;50.790;0.298;2022-11-21T07:09:51;15.07;;;3.70;;
22614;SDS011;11474;50.790;0.298;2022-11-21T07:12:17;18.05;;;4.07;;
22614;SDS011;11474;50.790;0.298;2022-11-21T07:15:02;30.52;;;4.68;;
22614;SDS011;11474;50.790;0.298;2022-11-21T07:17:28;47.53;;;7.13;;
22614;SDS011;11474;50.790;0.298;2022-11-21T07:19:54;41.58;;;5.57;;
22614;SDS011;11474;50.790;0.298;2022-11-21T07:22:20;40.57;;;6.13;;
22614;SDS011;11474;50.790;0.298;2022-11-21T07:24:46;42.43;;;5.97;;
22614;SDS011;11474;50.790;0.298;2022-11-21T07:27:12;43.13;;;5.68;;
22614;SDS011;11474;50.790;0.298;2022-11-21T07:29:38;41.28;;;5.70;;
22614;SDS011;11474;50.790;0.298;2022-11-21T07:32:04;37.28;;;5.75;;
22614;SDS011;11474;50.790;0.298;2022-11-21T07:34:30;37.53;;;6.75;;
22614;SDS011;11474;50.790;0.298;2022-11-21T07:36:56;44.40;;;6.38;;
22614;SDS011;11474;50.790;0.298;2022-11-21T07:39:23;36.28;;;5.97;;
22614;SDS011;11474;50.790;0.298;2022-11-21T07:41:49;45.65;;;6.03;;
22614;SDS011;11474;50.790;0.298;2022-11-21T07:44:15;36.70;;;5.85;;
22614;SDS011;11474;50.790;0.298;2022-11-21T07:46:41;28.30;;;5.15;;
22614;SDS011;11474;50.790;0.298;2022-11-21T07:49:07;30.35;;;5.32;;
22614;SDS011;11474;50.790;0.298;2022-11-21T07:51:33;37.92;;;6.25;;
22614;SDS011;11474;50.790;0.298;2022-11-21T07:53:59;36.25;;;5.97;;
22614;SDS011;11474;50.790;0.298;2022-11-21T07:56:25;30.48;;;5.20;;
22614;SDS011;11474;50.790;0.298;2022-11-21T07:58:51;33.00;;;6.07;;
22614;SDS011;11474;50.790;0.298;2022-11-21T08:01:17;32.10;;;5.90;;
22614;SDS011;11474;50.790;0.298;2022-11-21T08:03:43;23.58;;;4.68;;
22614;SDS011;11474;50.790;0.298;2022-11-21T08:06:10;26.83;;;5.13;;
22614;SDS011;11474;50.790;0.298;2022-11-21T08:08:37;29.33;;;5.18;;
22614;SDS011;11474;50.790;0.298;2022-11-21T08:11:04;34.30;;;5.35;;
22614;SDS011;11474;50.790;0.298;2022-11-21T08:13:30;29.80;;;5.30;;
22614;SDS011;11474;50.790;0.298;2022-11-21T08:15:57;29.77;;;5.10;;
22614;SDS011;11474;50.790;0.298;2022-11-21T08:18:23;34.45;;;5.68;;
22614;SDS011;11474;50.790;0.298;2022-11-21T08:20:49;33.17;;;5.47;;
22614;SDS011;11474;50.790;0.298;2022-11-21T08:23:15;25.65;;;4.53;;
22614;SDS011;11474;50.790;0.298;2022-11-21T08:25:41;30.60;;;5.53;;
22614;SDS011;11474;50.790;0.298;2022-11-21T08:28:09;38.00;;;6.07;;
22614;SDS011;11474;50.790;0.298;2022-11-21T08:30:36;30.95;;;5.85;;
22614;SDS011;11474;50.790;0.298;2022-11-21T08:33:03;32.97;;;5.47;;
22614;SDS011;11474;50.790;0.298;2022-11-21T08:35:29;30.02;;;5.70;;
22614;SDS011;11474;50.790;0.298;2022-11-21T08:37:56;30.25;;;5.55;;
22614;SDS011;11474;50.790;0.298;2022-11-21T08:40:22;32.90;;;6.80;;
22614;SDS011;11474;50.790;0.298;2022-11-21T08:43:10;33.88;;;6.00;;
22614;SDS011;11474;50.790;0.298;2022-11-21T08:45:35;30.08;;;5.93;;
22614;SDS011;11474;50.790;0.298;2022-11-21T08:48:02;34.93;;;5.73;;
22614;SDS011;11474;50.790;0.298;2022-11-21T08:50:28;30.73;;;5.20;;
22614;SDS011;11474;50.790;0.298;2022-11-21T08:52:59;31.67;;;5.18;;
22614;SDS011;11474;50.790;0.298;2022-11-21T08:55:26;32.40;;;4.93;;
22614;SDS011;11474;50.790;0.298;2022-11-21T08:57:52;21.92;;;4.65;;
22614;SDS011;11474;50.790;0.298;2022-11-21T09:00:19;28.98;;;5.10;;
22614;SDS011;11474;50.790;0.298;2022-11-21T09:02:45;29.10;;;5.18;;
22614;SDS011;11474;50.790;0.298;2022-11-21T09:05:12;28.42;;;5.45;;
22614;SDS011;11474;50.790;0.298;2022-11-21T09:07:38;26.45;;;4.65;;
22614;SDS011;11474;50.790;0.298;2022-11-21T09:10:05;30.20;;;5.30;;
22614;SDS011;11474;50.790;0.298;2022-11-21T09:12:32;23.30;;;5.30;;
22614;SDS011;11474;50.790;0.298;2022-11-21T09:14:58;25.15;;;4.82;;
22614;SDS011;11474;50.790;0.298;2022-11-21T09:17:43;25.67;;;4.93;;
22614;SDS011;11474;50.790;0.298;2022-11-21T09:20:27;28.85;;;4.93;;
22614;SDS011;11474;50.790;0.298;2022-11-21T09:22:54;33.53;;;5.20;;
22614;SDS011;11474;50.790;0.298;2022-11-21T09:25:20;31.17;;;5.68;;
22614;SDS011;11474;50.790;0.298;2022-11-21T09:27:47;32.50;;;6.17;;
22614;SDS011;11474;50.790;0.298;2022-11-21T09:30:14;37.05;;;7.05;;
22614;SDS011;11474;50.790;0.298;2022-11-21T09:32:41;38.40;;;5.90;;
22614;SDS011;11474;50.790;0.298;2022-11-21T09:35:07;34.90;;;6.30;;
22614;SDS011;11474;50.790;0.298;2022-11-21T09:37:36;45.30;;;6.57;;
22614;SDS011;11474;50.790;0.298;2022-11-21T09:40:02;32.33;;;6.25;;
22614;SDS011;11474;50.790;0.298;2022-11-21T09:45:12;34.70;;;5.40;;
22614;SDS011;11474;50.790;0.298;2022-11-21T09:47:46;35.45;;;7.05;;
22614;SDS011;11474;50.790;0.298;2022-11-21T09:52:49;37.22;;;5.53;;
22614;SDS011;11474;50.790;0.298;2022-11-21T09:57:59;39.17;;;6.70;;
22614;SDS011;11474;50.790;0.298;2022-11-21T10:00:27;33.63;;;5.33;;
22614;SDS011;11474;50.790;0.298;2022-11-21T10:02:53;30.17;;;5.38;;
22614;SDS011;11474;50.790;0.298;2022-11-21T10:06:02;35.30;;;6.25;;
22614;SDS011;11474;50.790;0.298;2022-11-21T10:08:16;27.90;;;5.17;;
22614;SDS011;11474;50.790;0.298;2022-11-21T10:13:27;33.33;;;5.93;;
22614;SDS011;11474;50.790;0.298;2022-11-21T10:16:02;29.83;;;5.38;;
22614;SDS011;11474;50.790;0.298;2022-11-21T10:31:13;35.92;;;5.38;;
22614;SDS011;11474;50.790;0.298;2022-11-21T10:33:39;31.17;;;6.20;;
22614;SDS011;11474;50.790;0.298;2022-11-21T10:36:08;27.08;;;5.05;;
22614;SDS011;11474;50.790;0.298;2022-11-21T10:38:37;27.75;;;5.47;;
22614;SDS011;11474;50.790;0.298;2022-11-21T10:41:12;33.15;;;5.40;;
22614;SDS011;11474;50.790;0.298;2022-11-21T10:43:44;37.13;;;7.22;;
22614;SDS011;11474;50.790;0.298;2022-11-21T10:46:31;37.33;;;6.03;;
22614;SDS011;11474;50.790;0.298;2022-11-21T10:48:58;32.70;;;6.18;;
22614;SDS011;11474;50.790;0.298;2022-11-21T10:54:04;26.50;;;5.57;;
22614;SDS011;11474;50.790;0.298;2022-11-21T10:56:50;35.03;;;6.80;;
22614;SDS011;11474;50.790;0.298;2022-11-21T10:59:23;27.60;;;6.38;;
22614;SDS011;11474;50.790;0.298;2022-11-21T11:02:32;38.20;;;7.00;;
22614;SDS011;11474;50.790;0.298;2022-11-21T11:04:39;25.80;;;5.18;;
22614;SDS011;11474;50.790;0.298;2022-11-21T11:07:19;34.60;;;5.72;;
22614;SDS011;11474;50.790;0.298;2022-11-21T11:09:45;33.78;;;5.90;;
22614;SDS011;11474;50.790;0.298;2022-11-21T11:15:25;30.80;;;5.63;;
22614;SDS011;11474;50.790;0.298;2022-11-21T11:17:55;34.65;;;5.57;;
22614;SDS011;11474;50.790;0.298;2022-11-21T11:22:57;24.63;;;5.17;;
22614;SDS011;11474;50.790;0.298;2022-11-21T11:25:23;26.90;;;5.22;;
22614;SDS011;11474;50.790;0.298;2022-11-21T11:27:49;36.88;;;5.85;;
22614;SDS011;11474;50.790;0.298;2022-11-21T11:30:16;32.88;;;6.47;;
22614;SDS011;11474;50.790;0.298;2022-11-21T11:32:42;35.53;;;6.03;;
22614;SDS011;11474;50.790;0.298;2022-11-21T11:37:38;37.25;;;7.03;;
22614;SDS011;11474;50.790;0.298;2022-11-21T11:40:16;32.72;;;5.65;;
22614;SDS011;11474;50.790;0.298;2022-11-21T11:48:36;31.73;;;5.75;;
22614;SDS011;11474;50.790;0.298;2022-11-21T11:51:12;25.42;;;4.97;;
22614;SDS011;11474;50.790;0.298;2022-11-21T11:53:43;33.77;;;6.03;;
22614;SDS011;11474;50.790;0.298;2022-11-21T11:56:21;33.08;;;5.90;;
22614;SDS011;11474;50.790;0.298;2022-11-21T12:01:34;31.25;;;5.25;;
22614;SDS011;11474;50.790;0.298;2022-11-21T12:04:04;39.20;;;5.72;;
22614;SDS011;11474;50.790;0.298;2022-11-21T12:06:33;30.83;;;5.45;;
22614;SDS011;11474;50.790;0.298;2022-11-21T12:17:16;32.47;;;5.27;;
22614;SDS011;11474;50.790;0.298;2022-11-21T12:19:44;31.30;;;5.18;;
22614;SDS011;11474;50.790;0.298;2022-11-21T12:22:11;43.70;;;6.80;;
22614;SDS011;11474;50.790;0.298;2022-11-21T12:24:38;22.13;;;4.68;;
22614;SDS011;11474;50.790;0.298;2022-11-21T12:27:10;30.42;;;4.38;;
22614;SDS011;11474;50.790;0.298;2022-11-21T12:35:01;33.47;;;4.80;;
22614;SDS011;11474;50.790;0.298;2022-11-21T12:37:43;26.60;;;4.43;;
22614;SDS011;11474;50.790;0.298;2022-11-21T12:42:58;31.55;;;4.95;;
22614;SDS011;11474;50.790;0.298;2022-11-21T12:56:27;19.10;;;3.57;;
22614;SDS011;11474;50.790;0.298;2022-11-21T12:58:57;23.02;;;4.03;;
22614;SDS011;11474;50.790;0.298;2022-11-21T13:01:27;32.37;;;5.53;;
22614;SDS011;11474;50.790;0.298;2022-11-21T13:06:24;26.90;;;3.72;;
22614;SDS011;11474;50.790;0.298;2022-11-21T13:08:51;30.45;;;4.88;;
22614;SDS011;11474;50.790;0.298;2022-11-21T13:14:12;23.27;;;4.82;;
22614;SDS011;11474;50.790;0.298;2022-11-21T13:16:41;30.00;;;4.20;;
22614;SDS011;11474;50.790;0.298;2022-11-21T13:21:50;28.37;;;4.27;;
22614;SDS011;11474;50.790;0.298;2022-11-21T13:27:02;16.13;;;3.35;;
22614;SDS011;11474;50.790;0.298;2022-11-21T13:29:28;26.85;;;4.05;;
22614;SDS011;11474;50.790;0.298;2022-11-21T13:31:55;21.92;;;4.20;;
22614;SDS011;11474;50.790;0.298;2022-11-21T13:36:57;25.08;;;4.10;;
22614;SDS011;11474;50.790;0.298;2022-11-21T13:39:25;25.40;;;4.00;;
22614;SDS011;11474;50.790;0.298;2022-11-21T13:42:07;24.42;;;4.22;;
22614;SDS011;11474;50.790;0.298;2022-11-21T13:44:52;20.38;;;4.00;;
22614;SDS011;11474;50.790;0.298;2022-11-21T14:03:30;30.73;;;4.82;;
22614;SDS011;11474;50.790;0.298;2022-11-21T14:08:28;32.92;;;5.97;;
22614;SDS011;11474;50.790;0.298;2022-11-21T14:10:55;39.27;;;7.43;;
22614;SDS011;11474;50.790;0.298;2022-11-21T14:13:32;36.47;;;5.53;;
22614;SDS011;11474;50.790;0.298;2022-11-21T14:18:44;33.97;;;6.13;;
22614;SDS011;11474;50.790;0.298;2022-11-21T14:24:14;27.38;;;4.45;;
22614;SDS011;11474;50.790;0.298;2022-11-21T14:26:56;25.40;;;5.10;;
22614;SDS011;11474;50.790;0.298;2022-11-21T14:31:55;22.02;;;4.38;;
22614;SDS011;11474;50.790;0.298;2022-11-21T14:34:28;33.30;;;5.30;;
22614;SDS011;11474;50.790;0.298;2022-11-21T14:36:56;28.33;;;4.40;;
22614;SDS011;11474;50.790;0.298;2022-11-21T14:39:25;26.43;;;4.23;;
22614;SDS011;11474;50.790;0.298;2022-11-21T14:41:53;24.85;;;4.28;;
22614;SDS011;11474;50.790;0.298;2022-11-21T14:44:21;32.35;;;5.45;;
22614;SDS011;11474;50.790;0.298;2022-11-21T14:46:47;26.33;;;4.90;;
22614;SDS011;11474;50.790;0.298;2022-11-21T14:51:48;21.08;;;3.42;;
22614;SDS011;11474;50.790;0.298;2022-11-21T14:54:18;31.77;;;4.38;;
22614;SDS011;11474;50.790;0.298;2022-11-21T14:56:46;21.40;;;3.85;;
22614;SDS011;11474;50.790;0.298;2022-11-21T14:59:33;40.60;;;6.40;;
22614;SDS011;11474;50.790;0.298;2022-11-21T15:02:02;43.22;;;7.05;;
22614;SDS011;11474;50.790;0.298;2022-11-21T15:04:30;27.35;;;4.28;;
22614;SDS011;11474;50.790;0.298;2022-11-21T15:06:57;28.20;;;4.47;;
22614;SDS011;11474;50.790;0.298;2022-11-21T15:09:23;25.58;;;4.45;;
22614;SDS011;11474;50.790;0.298;2022-11-21T15:12:51;27.58;;;4.63;;
22614;SDS011;11474;50.790;0.298;2022-11-21T15:14:53;25.03;;;4.20;;
22614;SDS011;11474;50.790;0.298;2022-11-21T15:17:22;30.35;;;4.97;;
22614;SDS011;11474;50.790;0.298;2022-11-21T15:22:58;21.58;;;3.88;;
22614;SDS011;11474;50.790;0.298;2022-11-21T15:25:26;29.08;;;4.55;;
22614;SDS011;11474;50.790;0.298;2022-11-21T15:30:27;19.52;;;2.97;;
22614;SDS011;11474;50.790;0.298;2022-11-21T15:38:18;21.45;;;3.60;;
22614;SDS011;11474;50.790;0.298;2022-11-21T15:46:01;24.83;;;4.18;;
22614;SDS011;11474;50.790;0.298;2022-11-21T15:48:27;27.02;;;4.00;;
22614;SDS011;11474;50.790;0.298;2022-11-21T15:50:54;22.00;;;4.20;;
22614;SDS011;11474;50.790;0.298;2022-11-21T15:53:20;23.98;;;4.55;;
22614;SDS011;11474;50.790;0.298;2022-11-21T15:55:46;24.10;;;5.13;;
22614;SDS011;11474;50.790;0.298;2022-11-21T15:58:12;18.52;;;3.65;;
22614;SDS011;11474;50.790;0.298;2022-11-21T16:00:38;19.80;;;3.70;;
22614;SDS011;11474;50.790;0.298;2022-11-21T16:03:04;18.42;;;3.78;;
22614;SDS011;11474;50.790;0.298;2022-11-21T16:05:30;17.10;;;3.72;;
22614;SDS011;11474;50.790;0.298;2022-11-21T16:07:56;16.10;;;3.40;;
22614;SDS011;11474;50.790;0.298;2022-11-21T16:10:22;14.25;;;3.08;;
22614;SDS011;11474;50.790;0.298;2022-11-21T16:12:48;15.85;;;3.15;;
22614;SDS011;11474;50.790;0.298;2022-11-21T16:15:15;17.70;;;3.15;;
22614;SDS011;11474;50.790;0.298;2022-11-21T16:17:41;16.70;;;3.20;;
22614;SDS011;11474;50.790;0.298;2022-11-21T16:20:09;12.25;;;3.50;;
22614;SDS011;11474;50.790;0.298;2022-11-21T16:22:35;18.35;;;3.10;;
22614;SDS011;11474;50.790;0.298;2022-11-21T16:25:01;15.10;;;3.50;;
22614;SDS011;11474;50.790;0.298;2022-11-21T16:27:27;15.00;;;3.50;;
22614;SDS011;11474;50.790;0.298;2022-11-21T16:29:54;17.65;;;3.30;;
22614;SDS011;11474;50.790;0.298;2022-11-21T16:32:20;15.30;;;3.10;;
22614;SDS011;11474;50.790;0.298;2022-11-21T16:34:46;14.82;;;2.70;;
22614;SDS011;11474;50.790;0.298;2022-11-21T16:37:12;16.52;;;3.13;;
22614;SDS011;11474;50.790;0.298;2022-11-21T16:39:38;15.25;;;3.15;;
22614;SDS011;11474;50.790;0.298;2022-11-21T16:42:04;18.00;;;3.42;;
22614;SDS011;11474;50.790;0.298;2022-11-21T16:44:34;14.68;;;3.70;;
22614;SDS011;11474;50.790;0.298;2022-11-21T16:47:00;16.67;;;3.13;;
22614;SDS011;11474;50.790;0.298;2022-11-21T16:49:26;14.43;;;3.05;;
22614;SDS011;11474;50.790;0.298;2022-11-21T16:51:52;18.13;;;2.92;;
22614;SDS011;11474;50.790;0.298;2022-11-21T16:54:20;14.27;;;3.20;;
22614;SDS011;11474;50.790;0.298;2022-11-21T16:56:46;21.88;;;3.40;;
22614;SDS011;11474;50.790;0.298;2022-11-21T16:59:12;27.23;;;4.05;;